<?xml version="1.0" encoding="utf-8"?>
<gpx xmlns:xsi="http://www.w3.org/2001/XMLSchema-instance" xmlns:xsd="http://www.w3.org/2001/XMLSchema" version="1.1" creator="Shapelink.com" xmlns="http://www.topografix.com/GPX/1/1" xmlns:gpxtpx="http://www.garmin.com/xmlschemas/TrackPointExtension/v1">
  <metadata>
    <name>Övrigt 1.05 km, 2020-08-06</name>
    <desc></desc>
    <author><name>Marian Moron</name></author> 
    <time>2020-08-06T19:38:35Z</time>
  </metadata>
  <trk>
    <name>Övrigt 1.05 km, 2020-08-06</name>
    <trkseg>
      <trkpt lat="51.229921929733" lon="4.45801661237">
        <ele>0</ele>
        <time>2020-08-06T19:38:35Z</time>
      </trkpt>
      <trkpt lat="51.229922600285" lon="4.458056929309">
        <ele>0</ele>
        <time>2020-08-06T19:40:42Z</time>
      </trkpt>
      <trkpt lat="51.229890078513" lon="4.457417390339">
        <ele>0</ele>
        <time>2020-08-06T19:41:11Z</time>
      </trkpt>
      <trkpt lat="51.229833249231" lon="4.456870890459">
        <ele>0</ele>
        <time>2020-08-06T19:41:35Z</time>
      </trkpt>
      <trkpt lat="51.229880690785" lon="4.456766284347">
        <ele>0</ele>
        <time>2020-08-06T19:41:41Z</time>
      </trkpt>
      <trkpt lat="51.229884127364" lon="4.456685818107">
        <ele>1.2</ele>
        <time>2020-08-06T19:41:44Z</time>
      </trkpt>
      <trkpt lat="51.229906423218" lon="4.456616751251">
        <ele>4.4</ele>
        <time>2020-08-06T19:41:48Z</time>
      </trkpt>
      <trkpt lat="51.230067104241" lon="4.456549947508">
        <ele>6.8</ele>
        <time>2020-08-06T19:42:01Z</time>
      </trkpt>
      <trkpt lat="51.230234071689" lon="4.456516587546">
        <ele>7.8</ele>
        <time>2020-08-06T19:42:14Z</time>
      </trkpt>
      <trkpt lat="51.230259552665" lon="4.456493034407">
        <ele>8.4</ele>
        <time>2020-08-06T19:42:16Z</time>
      </trkpt>
      <trkpt lat="51.230293331722" lon="4.456463530119">
        <ele>8.8</ele>
        <time>2020-08-06T19:42:19Z</time>
      </trkpt>
      <trkpt lat="51.230316465766" lon="4.456425141017">
        <ele>9</ele>
        <time>2020-08-06T19:42:24Z</time>
      </trkpt>
      <trkpt lat="51.23034379076" lon="4.456387087191">
        <ele>9.4</ele>
        <time>2020-08-06T19:42:28Z</time>
      </trkpt>
      <trkpt lat="51.230361728026" lon="4.456373592332">
        <ele>9.2</ele>
        <time>2020-08-06T19:42:30Z</time>
      </trkpt>
      <trkpt lat="51.230377066903" lon="4.456357247627">
        <ele>8.8</ele>
        <time>2020-08-06T19:42:32Z</time>
      </trkpt>
      <trkpt lat="51.230429621416" lon="4.456306369494">
        <ele>7.2</ele>
        <time>2020-08-06T19:42:44Z</time>
      </trkpt>
      <trkpt lat="51.23077964956" lon="4.456297987594">
        <ele>10</ele>
        <time>2020-08-06T19:43:18Z</time>
      </trkpt>
      <trkpt lat="51.230838993412" lon="4.456310728082">
        <ele>7.8</ele>
        <time>2020-08-06T19:43:22Z</time>
      </trkpt>
      <trkpt lat="51.230896828522" lon="4.456283319269">
        <ele>6</ele>
        <time>2020-08-06T19:43:25Z</time>
      </trkpt>
      <trkpt lat="51.230991627811" lon="4.456073268855">
        <ele>0</ele>
        <time>2020-08-06T19:43:37Z</time>
      </trkpt>
      <trkpt lat="51.230625674057" lon="4.455705135807">
        <ele>0</ele>
        <time>2020-08-06T19:44:12Z</time>
      </trkpt>
      <trkpt lat="51.230378324188" lon="4.455394502593">
        <ele>15</ele>
        <time>2020-08-06T19:44:36Z</time>
      </trkpt>
      <trkpt lat="51.230137344563" lon="4.455234911217">
        <ele>17.4</ele>
        <time>2020-08-06T19:44:59Z</time>
      </trkpt>
      <trkpt lat="51.230098620185" lon="4.455289477386">
        <ele>1.2</ele>
        <time>2020-08-06T19:45:27Z</time>
      </trkpt>
      <trkpt lat="51.22991547567" lon="4.455198282314">
        <ele>0</ele>
        <time>2020-08-06T19:45:42Z</time>
      </trkpt>
      <trkpt lat="51.229792010283" lon="4.455200545427">
        <ele>0</ele>
        <time>2020-08-06T19:45:51Z</time>
      </trkpt>
      <trkpt lat="51.229423039045" lon="4.45499409923">
        <ele>4.6</ele>
        <time>2020-08-06T19:46:27Z</time>
      </trkpt>
      <trkpt lat="51.229303010237" lon="4.454950178074">
        <ele>0.8</ele>
        <time>2020-08-06T19:46:37Z</time>
      </trkpt>
      <trkpt lat="51.228875617156" lon="4.454784132635">
        <ele>3.2</ele>
        <time>2020-08-06T19:47:12Z</time>
      </trkpt>
      <trkpt lat="51.228567749969" lon="4.454906340737">
        <ele>0</ele>
        <time>2020-08-06T19:47:36Z</time>
      </trkpt>
      <trkpt lat="51.228543191002" lon="4.454901143959">
        <ele>0</ele>
        <time>2020-08-06T19:47:39Z</time>
      </trkpt>
      <trkpt lat="51.22850144914" lon="4.454864682694">
        <ele>0</ele>
        <time>2020-08-06T19:47:43Z</time>
      </trkpt>
      <trkpt lat="51.228463060038" lon="4.454861749029">
        <ele>0</ele>
        <time>2020-08-06T19:47:48Z</time>
      </trkpt>
      <trkpt lat="51.228024099935" lon="4.454946154762">
        <ele>0</ele>
        <time>2020-08-06T19:48:16Z</time>
      </trkpt>
      <trkpt lat="51.227925025877" lon="4.454944729839">
        <ele>0.4</ele>
        <time>2020-08-06T19:48:37Z</time>
      </trkpt>
      <trkpt lat="51.227824945991" lon="4.454998122542">
        <ele>0.4</ele>
        <time>2020-08-06T19:48:55Z</time>
      </trkpt>
      <trkpt lat="51.227733248005" lon="4.455125778879">
        <ele>0</ele>
        <time>2020-08-06T19:49:12Z</time>
      </trkpt>
      <trkpt lat="51.227751939642" lon="4.455172801338">
        <ele>0</ele>
        <time>2020-08-06T19:49:15Z</time>
      </trkpt>
      <trkpt lat="51.227996942579" lon="4.455772442464">
        <ele>0</ele>
        <time>2020-08-06T19:49:54Z</time>
      </trkpt>
      <trkpt lat="51.228063411046" lon="4.455970255304">
        <ele>0</ele>
        <time>2020-08-06T19:50:13Z</time>
      </trkpt>
      <trkpt lat="51.228310593277" lon="4.456567046584">
        <ele>0</ele>
        <time>2020-08-06T19:50:52Z</time>
      </trkpt>
      <trkpt lat="51.228443111116" lon="4.456911710312">
        <ele>1.4</ele>
        <time>2020-08-06T19:51:15Z</time>
      </trkpt>
      <trkpt lat="51.228457947079" lon="4.457049005834">
        <ele>7.2</ele>
        <time>2020-08-06T19:51:28Z</time>
      </trkpt>
      <trkpt lat="51.228488289557" lon="4.457311778399">
        <ele>6.2</ele>
        <time>2020-08-06T19:51:43Z</time>
      </trkpt>
      <trkpt lat="51.22853916769" lon="4.458034298179">
        <ele>0</ele>
        <time>2020-08-06T19:52:25Z</time>
      </trkpt>
      <trkpt lat="51.228624998346" lon="4.45818089761">
        <ele>0</ele>
        <time>2020-08-06T19:54:13Z</time>
      </trkpt>
      <trkpt lat="51.22891048586" lon="4.45816832476">
        <ele>8.4</ele>
        <time>2020-08-06T19:56:26Z</time>
      </trkpt>
    </trkseg>
  </trk>
</gpx>